createdAt,value
2024-02-05T00:00:42.201Z,102028.53
2024-02-05T00:03:10.550Z,102035.06
2024-02-05T00:05:38.865Z,102041.41
2024-02-05T00:08:09.257Z,102028.00
2024-02-05T00:10:37.598Z,102028.16
2024-02-05T00:13:06.531Z,102064.22
2024-02-05T00:15:34.446Z,102033.56
2024-02-05T00:18:02.721Z,102049.84
2024-02-05T00:20:31.073Z,102042.69
2024-02-05T00:22:59.251Z,102050.78
2024-02-05T00:25:27.501Z,102047.13
2024-02-05T00:27:55.806Z,102047.22
2024-02-05T00:30:24.092Z,102042.63
2024-02-05T00:32:53.773Z,102065.16
2024-02-05T00:35:22.050Z,102050.88
2024-02-05T00:37:50.644Z,102060.81
2024-02-05T00:40:18.977Z,102059.94
2024-02-05T00:42:47.291Z,102059.03
2024-02-05T00:45:15.658Z,102063.63
2024-02-05T00:47:43.993Z,102048.50
2024-02-05T00:50:12.409Z,102041.44
2024-02-05T00:52:40.740Z,102050.50
2024-02-05T00:55:09.265Z,102050.50
2024-02-05T00:57:38.097Z,102049.63
2024-02-05T01:00:10.546Z,102038.06
2024-02-05T01:02:38.877Z,102043.47
2024-02-05T01:05:08.317Z,102045.31
2024-02-05T01:07:37.940Z,102047.06
2024-02-05T01:10:06.638Z,102046.34
2024-02-05T01:12:34.883Z,102049.31
2024-02-05T01:15:03.127Z,102042.47
2024-02-05T01:17:31.385Z,102047.88
2024-02-05T01:20:03.747Z,102046.06
2024-02-05T01:22:33.589Z,102030.81
2024-02-05T01:25:01.789Z,102032.75
2024-02-05T01:27:29.986Z,102035.53
2024-02-05T01:29:58.335Z,102030.13
2024-02-05T01:32:26.586Z,102021.97
2024-02-05T01:34:54.956Z,102012.91
2024-02-05T01:37:24.604Z,102021.78
2024-02-05T01:39:52.825Z,102019.97
2024-02-05T01:42:21.069Z,102011.78
2024-02-05T01:44:49.603Z,102006.41
2024-02-05T01:47:17.845Z,102030.75
2024-02-05T01:49:49.058Z,102015.44
2024-02-05T01:52:21.743Z,102028.28
2024-02-05T01:54:50.997Z,102019.91
2024-02-05T01:57:19.427Z,102013.44
2024-02-05T01:59:47.867Z,102017.66
2024-02-05T02:02:16.205Z,102007.31
2024-02-05T02:04:44.505Z,102007.66
2024-02-05T02:07:13.322Z,102012.41
2024-02-05T02:09:41.655Z,102026.91
2024-02-05T02:12:10.043Z,102017.00
2024-02-05T02:14:38.849Z,102018.66
2024-02-05T02:17:07.508Z,102012.34
2024-02-05T02:19:45.079Z,102014.22
2024-02-05T02:22:39.661Z,102010.81
2024-02-05T02:25:08.667Z,102020.72
2024-02-05T02:27:37.035Z,102003.69
2024-02-05T02:30:06.569Z,102008.13
2024-02-05T02:33:09.444Z,102012.50
2024-02-05T02:35:45.816Z,102004.53
2024-02-05T02:38:44.781Z,102005.50
2024-02-05T02:41:26.416Z,101997.44
2024-02-05T02:44:03.017Z,101993.69
2024-02-05T02:46:32.557Z,101990.06
2024-02-05T02:49:00.923Z,101992.91
2024-02-05T02:51:29.528Z,101995.69
2024-02-05T02:53:57.895Z,102015.25
2024-02-05T02:56:26.101Z,102003.53
2024-02-05T02:58:54.276Z,102008.03
2024-02-05T03:01:22.632Z,102005.34
2024-02-05T03:03:51.242Z,101989.19
2024-02-05T03:06:19.583Z,101989.25
2024-02-05T03:08:47.759Z,102004.63
2024-02-05T03:11:15.956Z,102000.38
2024-02-05T03:13:44.151Z,102001.47
2024-02-05T03:16:12.415Z,101999.72
2024-02-05T03:18:40.756Z,102003.50
2024-02-05T03:21:09.086Z,102004.47
2024-02-05T03:23:38.099Z,102006.38
2024-02-05T03:26:06.390Z,101998.44
2024-02-05T03:28:34.574Z,102005.81
2024-02-05T03:31:05.624Z,102010.56
2024-02-05T03:33:33.921Z,102009.66
2024-02-05T03:36:02.266Z,102009.50
2024-02-05T03:38:30.473Z,102027.44
2024-02-05T03:40:58.686Z,102023.06
2024-02-05T03:43:26.989Z,102014.69
2024-02-05T03:45:55.278Z,102018.16
2024-02-05T03:48:23.572Z,102005.66
2024-02-05T03:50:51.888Z,102016.25
2024-02-05T03:53:20.306Z,102014.22
2024-02-05T03:55:48.794Z,102021.28
2024-02-05T03:58:17.166Z,102012.22
2024-02-05T04:00:45.608Z,102025.63
2024-02-05T04:03:14.043Z,102020.16
2024-02-05T04:05:42.269Z,102028.06
2024-02-05T04:08:10.492Z,102020.00
2024-02-05T04:10:38.746Z,102019.13
2024-02-05T04:13:07.012Z,102009.16
2024-02-05T04:15:36.063Z,102009.16
2024-02-05T04:18:04.092Z,102011.84
2024-02-05T04:20:32.419Z,102013.66
2024-02-05T04:23:02.917Z,102015.41
2024-02-05T04:25:32.834Z,102002.81
2024-02-05T04:28:03.638Z,102013.50
2024-02-05T04:30:34.315Z,102023.31
2024-02-05T04:33:04.182Z,102013.44
2024-02-05T04:35:33.464Z,102007.16
2024-02-05T04:38:01.703Z,102013.50
2024-02-05T04:40:30.062Z,102017.09
2024-02-05T04:42:58.452Z,102013.50
2024-02-05T04:45:26.989Z,102009.94
2024-02-05T04:47:55.596Z,102005.50
2024-02-05T04:50:23.911Z,101996.53
2024-02-05T04:52:52.190Z,102022.63
2024-02-05T04:55:20.569Z,102014.56
2024-02-05T04:57:50.982Z,102014.56
2024-02-05T05:00:23.235Z,101996.63
2024-02-05T05:02:51.561Z,101991.31
2024-02-05T05:05:19.865Z,101978.72
2024-02-05T05:07:48.366Z,102000.28
2024-02-05T05:10:16.780Z,101997.59
2024-02-05T05:12:44.997Z,102001.13
2024-02-05T05:15:17.123Z,102003.91
2024-02-05T05:17:48.305Z,102003.06
2024-02-05T05:20:16.651Z,102014.69
2024-02-05T05:22:44.929Z,102005.75
2024-02-05T05:25:13.228Z,101995.06
2024-02-05T05:27:41.585Z,102008.53
2024-02-05T05:30:10.628Z,102013.97
2024-02-05T05:32:38.878Z,102004.16
2024-02-05T05:35:10.657Z,102014.13
2024-02-05T05:37:42.704Z,102010.63
2024-02-05T05:40:11.739Z,102008.91
2024-02-05T05:42:40.245Z,102008.97
2024-02-05T05:45:08.928Z,102017.94
2024-02-05T05:47:37.486Z,102023.41
2024-02-05T05:50:06.400Z,102022.53
2024-02-05T05:52:34.769Z,102007.25
2024-02-05T05:55:02.994Z,102000.97
2024-02-05T05:57:31.251Z,102002.78
2024-02-05T06:00:00.548Z,102017.16
2024-02-05T06:02:29.820Z,101998.38
2024-02-05T06:04:58.010Z,101997.56
2024-02-05T06:07:26.272Z,102014.59
2024-02-05T06:09:54.556Z,102019.13
2024-02-05T06:12:23.552Z,102010.06
2024-02-05T06:14:51.733Z,102004.75
2024-02-05T06:17:20.192Z,102008.41
2024-02-05T06:19:48.615Z,102004.84
2024-02-05T06:22:16.969Z,102000.34
2024-02-05T06:24:45.299Z,102002.06
2024-02-05T06:27:13.536Z,102005.72
2024-02-05T06:29:41.740Z,101999.53
2024-02-05T06:32:10.044Z,101995.97
2024-02-05T06:34:38.512Z,101989.72
2024-02-05T06:37:06.902Z,101992.50
2024-02-05T06:39:35.221Z,101998.75
2024-02-05T06:42:03.477Z,101993.34
2024-02-05T06:44:31.711Z,101992.50
2024-02-05T06:46:59.962Z,101995.28
2024-02-05T06:49:28.454Z,102002.47
2024-02-05T06:51:56.802Z,102006.97
2024-02-05T06:54:25.238Z,102016.81
2024-02-05T06:56:53.487Z,102014.19
2024-02-05T06:59:21.707Z,101998.09
2024-02-05T07:01:50.054Z,102012.53
2024-02-05T07:04:18.402Z,102011.72
2024-02-05T07:06:46.943Z,102018.06
2024-02-05T07:09:15.408Z,102019.00
2024-02-05T07:11:44.612Z,102018.06
2024-02-05T07:14:12.854Z,102010.84
2024-02-05T07:16:41.140Z,102001.84
2024-02-05T07:19:09.662Z,102002.84
2024-02-05T07:21:38.026Z,101999.44
2024-02-05T07:24:06.406Z,102009.34
2024-02-05T07:26:37.538Z,101992.31
2024-02-05T07:29:05.763Z,102001.19
2024-02-05T07:31:34.199Z,102012.03
2024-02-05T07:34:02.537Z,101997.63
2024-02-05T07:36:32.727Z,102022.66
2024-02-05T07:39:01.918Z,102015.38
2024-02-05T07:41:30.776Z,102020.75
2024-02-05T07:43:59.043Z,102021.56
2024-02-05T07:46:27.334Z,102007.22
2024-02-05T07:48:55.723Z,102024.94
2024-02-05T07:51:24.078Z,102020.28
2024-02-05T07:53:52.394Z,102030.28
2024-02-05T07:56:20.642Z,102011.44
2024-02-05T07:58:49.001Z,102007.69
2024-02-05T08:01:17.250Z,102015.78
2024-02-05T08:03:45.699Z,102017.38
2024-02-05T08:06:20.723Z,102020.84
2024-02-05T08:08:49.186Z,102016.97
2024-02-05T08:11:17.684Z,102013.97
2024-02-05T08:13:45.985Z,102013.97
2024-02-05T08:16:14.341Z,102016.75
2024-02-05T08:18:42.824Z,102011.28
2024-02-05T08:21:11.103Z,102009.78
2024-02-05T08:23:39.715Z,102011.69
2024-02-05T08:26:10.523Z,102015.38
2024-02-05T08:28:42.432Z,102010.94
2024-02-05T08:31:10.812Z,102023.47
2024-02-05T08:33:39.097Z,102013.19
2024-02-05T08:36:07.663Z,102011.91
2024-02-05T08:38:35.879Z,102015.19
2024-02-05T08:41:04.038Z,102030.78
2024-02-05T08:43:32.456Z,102026.28
2024-02-05T08:46:09.765Z,102017.84
2024-02-05T08:48:39.063Z,102004.63
2024-02-05T08:51:07.577Z,102009.94
2024-02-05T08:53:35.807Z,102004.25
2024-02-05T08:56:04.040Z,102005.34
2024-02-05T08:59:14.123Z,102020.16
2024-02-05T09:01:44.250Z,102010.09
2024-02-05T09:04:12.569Z,102015.03
2024-02-05T09:06:42.511Z,102009.63
2024-02-05T09:09:11.310Z,102009.56
2024-02-05T09:11:45.879Z,102007.06
2024-02-05T09:14:21.592Z,102007.78
2024-02-05T09:16:50.000Z,102016.38
2024-02-05T09:19:20.352Z,102023.75
2024-02-05T09:21:49.868Z,102018.28
2024-02-05T09:24:19.171Z,102031.88
2024-02-05T09:26:47.388Z,102032.53
2024-02-05T09:29:15.601Z,102023.03
2024-02-05T09:31:44.134Z,102032.13
2024-02-05T09:34:15.631Z,102036.50
2024-02-05T09:36:44.727Z,102036.50
2024-02-05T09:39:13.297Z,102038.56
2024-02-05T09:41:43.405Z,102033.16
2024-02-05T09:44:12.890Z,102023.81
2024-02-05T09:46:45.068Z,102035.44
2024-02-05T09:49:27.929Z,102035.38
2024-02-05T09:51:57.630Z,102040.84
2024-02-05T09:54:26.047Z,102043.31
2024-02-05T09:56:54.600Z,102037.22
2024-02-05T09:59:23.115Z,102039.03
2024-02-05T10:02:01.046Z,102038.06
2024-02-05T10:04:36.510Z,102044.34
2024-02-05T10:07:07.564Z,102042.34
2024-02-05T10:09:39.464Z,102024.22
2024-02-05T10:12:13.519Z,102023.34
2024-02-05T10:14:45.851Z,102028.56
2024-02-05T10:17:40.036Z,102021.44
2024-02-05T10:20:14.576Z,102025.81
2024-02-05T10:22:49.461Z,102016.50
2024-02-05T10:25:19.211Z,102017.47
2024-02-05T10:27:47.581Z,102024.59
2024-02-05T10:30:20.055Z,102020.97
2024-02-05T10:32:49.993Z,102027.66
2024-02-05T10:35:21.036Z,102022.38
2024-02-05T10:37:54.444Z,102017.06
2024-02-05T10:40:23.637Z,102015.00
2024-02-05T10:42:55.584Z,102012.69
2024-02-05T10:45:47.687Z,102010.16
2024-02-05T10:48:18.831Z,101996.53
2024-02-05T10:50:47.335Z,102009.41
2024-02-05T10:53:19.915Z,102002.47
2024-02-05T10:55:50.290Z,102011.66
2024-02-05T10:58:23.437Z,101991.81
2024-02-05T11:00:53.302Z,101981.59
2024-02-05T11:03:26.675Z,101982.97
2024-02-05T11:06:00.185Z,101982.31
2024-02-05T11:08:36.109Z,101980.75
2024-02-05T11:11:11.781Z,101988.75
2024-02-05T11:13:59.044Z,101972.97
2024-02-05T11:16:27.871Z,101983.94
2024-02-05T11:19:12.943Z,101971.69
2024-02-05T11:21:47.823Z,101974.56
2024-02-05T11:24:20.481Z,101971.38
2024-02-05T11:26:48.874Z,101966.31
2024-02-05T11:29:33.217Z,101972.91
2024-02-05T11:32:02.844Z,101977.19
2024-02-05T11:35:01.737Z,101960.81
2024-02-05T11:37:33.230Z,101949.88
2024-02-05T11:40:02.758Z,101944.03
2024-02-05T11:42:32.900Z,101942.81
2024-02-05T11:45:02.232Z,101944.88
2024-02-05T11:47:30.819Z,101934.09
2024-02-05T11:50:00.308Z,101932.84
2024-02-05T11:52:29.135Z,101931.53
2024-02-05T11:54:57.803Z,101931.22
2024-02-05T11:57:27.113Z,101925.38
2024-02-05T11:59:55.301Z,101923.44
2024-02-05T12:02:24.680Z,101918.41
2024-02-05T12:04:53.503Z,101917.19
2024-02-05T12:07:24.279Z,101920.31
2024-02-05T12:10:04.129Z,101912.28
2024-02-05T12:12:32.592Z,101901.22
2024-02-05T12:15:00.789Z,101904.59
2024-02-05T12:17:31.057Z,101895.63
2024-02-05T12:20:01.308Z,101908.00
2024-02-05T12:22:29.927Z,101896.78
2024-02-05T12:25:00.719Z,101887.63
2024-02-05T12:27:29.836Z,101895.91
2024-02-05T12:30:09.336Z,101880.38
2024-02-05T16:23:23.806Z,101768.19
2024-02-05T16:25:52.200Z,101769.16
2024-02-05T16:28:20.494Z,101773.69
2024-02-05T16:30:48.806Z,101774.75
2024-02-05T16:33:17.114Z,101770.38
2024-02-05T16:35:46.672Z,101778.66
2024-02-05T16:38:14.880Z,101774.22
2024-02-05T16:40:43.128Z,101775.25
2024-02-05T16:43:14.350Z,101755.59
2024-02-05T16:45:42.880Z,101745.78
2024-02-05T16:48:11.743Z,101761.16
2024-02-05T16:50:40.010Z,101769.44
2024-02-05T16:53:12.080Z,101758.13
2024-02-05T16:55:40.385Z,101763.69
2024-02-05T16:58:09.036Z,101743.25
2024-02-05T17:00:37.382Z,101769.66
2024-02-05T17:03:15.549Z,101765.47
2024-02-05T17:05:44.052Z,101767.47
2024-02-05T17:08:13.345Z,101753.28
2024-02-05T17:10:41.706Z,101771.41
2024-02-05T17:13:10.048Z,101769.81
2024-02-05T17:15:41.505Z,101766.41
2024-02-05T17:18:10.297Z,101767.47
2024-02-05T17:20:38.609Z,101763.09
2024-02-05T17:23:06.839Z,101774.03
2024-02-05T17:25:35.673Z,101771.53
2024-02-05T17:28:04.020Z,101751.00
2024-02-05T17:30:32.612Z,101784.19
2024-02-05T17:33:01.059Z,101747.53
2024-02-05T17:35:29.740Z,101743.34
2024-02-05T17:37:57.994Z,101759.69
2024-02-05T17:40:26.191Z,101752.78
2024-02-05T17:42:54.595Z,101751.28
2024-02-05T17:45:22.886Z,101749.88
2024-02-05T17:47:51.141Z,101744.75
2024-02-05T17:50:19.519Z,101757.41
2024-02-05T17:52:50.155Z,101746.81
2024-02-05T17:55:21.096Z,101754.88
2024-02-05T17:57:49.937Z,101722.91
2024-02-05T18:00:18.354Z,101732.81
2024-02-05T18:02:46.739Z,101733.84
2024-02-05T18:05:15.383Z,101741.84
2024-02-05T18:07:43.843Z,101728.47
2024-02-05T18:10:13.015Z,101736.75
2024-02-05T18:12:41.236Z,101731.38
2024-02-05T18:15:10.239Z,101743.97
2024-02-05T18:17:38.176Z,101735.97
2024-02-05T18:20:07.030Z,101721.66
2024-02-05T18:22:36.026Z,101728.78
2024-02-05T18:25:04.354Z,101721.66
2024-02-05T18:27:32.835Z,101727.97
2024-02-05T18:30:01.163Z,101711.84
2024-02-05T18:32:29.402Z,101711.84
2024-02-05T18:34:58.304Z,101718.09
2024-02-05T18:37:27.873Z,101708.28
2024-02-05T18:39:56.173Z,101708.44
2024-02-05T18:42:24.410Z,101716.50
2024-02-05T18:44:52.622Z,101712.00
2024-02-05T18:47:22.324Z,101701.31
2024-02-05T18:49:50.925Z,101693.34
2024-02-05T18:52:19.352Z,101696.91
2024-02-05T18:54:47.679Z,101705.81
2024-02-05T18:57:20.094Z,101701.41
2024-02-05T18:59:48.316Z,101692.38
2024-02-05T19:02:16.612Z,101694.97
2024-02-05T19:04:44.998Z,101686.91
2024-02-05T19:07:13.280Z,101694.97
2024-02-05T19:09:41.552Z,101686.91
2024-02-05T19:12:09.861Z,101683.38
2024-02-05T19:14:38.169Z,101694.97
2024-02-05T19:17:06.741Z,101691.44
2024-02-05T19:19:38.049Z,101683.38
2024-02-05T19:22:07.526Z,101676.16
2024-02-05T19:24:35.721Z,101676.16
2024-02-05T19:27:05.830Z,101672.53
2024-02-05T19:29:34.316Z,101683.38
2024-02-05T19:32:03.250Z,101678.00
2024-02-05T19:34:31.539Z,101678.00
2024-02-05T19:37:00.603Z,101668.97
2024-02-05T19:39:28.474Z,101668.06
2024-02-05T19:41:56.768Z,101663.59
2024-02-05T19:44:25.350Z,101654.63
2024-02-05T19:46:53.712Z,101654.56
2024-02-05T19:49:21.990Z,101659.00
2024-02-05T19:51:50.310Z,101642.84
2024-02-05T19:54:18.522Z,101646.34
2024-02-05T19:56:47.571Z,101645.47
2024-02-05T19:59:18.375Z,101635.56
2024-02-05T20:01:46.696Z,101628.34
2024-02-05T20:04:15.742Z,101628.28
2024-02-05T20:06:43.733Z,101634.44
2024-02-05T20:09:12.327Z,101626.38
2024-02-05T20:11:40.519Z,101627.16
2024-02-05T20:14:10.328Z,101624.47
2024-02-05T20:16:38.660Z,101617.28
2024-02-05T20:19:09.081Z,101607.41
2024-02-05T20:21:37.366Z,101610.00
2024-02-05T20:24:06.213Z,101617.09
2024-02-05T20:26:35.333Z,101605.47
2024-02-05T20:29:03.633Z,101606.25
2024-02-05T20:31:34.605Z,101600.88
2024-02-05T20:34:03.295Z,101598.97
2024-02-05T20:36:31.666Z,101597.16
2024-02-05T20:38:59.980Z,101591.78
2024-02-05T20:41:28.279Z,101588.03
2024-02-05T20:43:56.796Z,101582.56
2024-02-05T20:46:25.068Z,101586.13
2024-02-05T20:48:53.418Z,101585.94
2024-02-05T20:51:21.702Z,101587.72
2024-02-05T20:53:49.917Z,101578.66
2024-02-05T20:56:20.675Z,101578.50
2024-02-05T20:58:48.951Z,101563.22
2024-02-05T21:01:17.305Z,101567.56
2024-02-05T21:03:45.763Z,101576.41
2024-02-05T21:06:14.063Z,101558.28
2024-02-05T21:08:42.418Z,101556.47
2024-02-05T21:11:10.622Z,101561.84
2024-02-05T21:13:38.902Z,101559.06
2024-02-05T21:16:08.619Z,101562.63
2024-02-05T21:18:36.905Z,101558.09
2024-02-05T21:21:06.221Z,101546.38
2024-02-05T21:23:34.435Z,101556.09
2024-02-05T21:26:02.640Z,101560.53
2024-02-05T21:28:31.132Z,101546.13
2024-02-05T21:30:59.927Z,101557.75
2024-02-05T21:33:28.276Z,101561.22
2024-02-05T21:35:56.497Z,101562.88
2024-02-05T21:38:24.974Z,101563.66
2024-02-05T21:40:53.381Z,101550.28
2024-02-05T21:43:21.653Z,101560.00
2024-02-05T21:45:49.954Z,101556.38
2024-02-05T21:48:18.235Z,101560.88
2024-02-05T21:50:46.558Z,101545.75
2024-02-05T21:53:14.801Z,101544.03
2024-02-05T21:55:43.119Z,101543.06
2024-02-05T21:58:11.402Z,101533.16
2024-02-05T22:00:39.722Z,101532.19
2024-02-05T22:03:07.919Z,101533.16
2024-02-05T22:05:36.213Z,101533.16
2024-02-05T22:08:04.605Z,101529.69
2024-02-05T22:10:32.897Z,101530.56
2024-02-05T22:13:01.184Z,101529.69
2024-02-05T22:15:30.903Z,101529.88
2024-02-05T22:17:59.278Z,101534.38
2024-02-05T22:20:27.604Z,101534.38
2024-02-05T22:22:55.810Z,101536.97
2024-02-05T22:25:24.074Z,101529.00
2024-02-05T22:27:52.357Z,101533.53
2024-02-05T22:30:20.594Z,101534.38
2024-02-05T22:32:48.841Z,101529.00
2024-02-05T22:35:17.199Z,101536.31
2024-02-05T22:37:45.470Z,101531.78
2024-02-05T22:40:13.762Z,101517.38
2024-02-05T22:42:42.024Z,101525.38
2024-02-05T22:45:10.415Z,101525.38
2024-02-05T22:47:38.847Z,101516.22
2024-02-05T22:50:07.749Z,101504.63
2024-02-05T22:52:36.829Z,101508.16
2024-02-05T22:55:05.588Z,101502.59
2024-02-05T22:57:34.731Z,101502.69
2024-02-05T23:00:03.479Z,101506.06
2024-02-05T23:02:32.030Z,101497.78
2024-02-05T23:05:00.437Z,101497.78
2024-02-05T23:07:28.707Z,101502.16
2024-02-05T23:09:57.956Z,101500.41
2024-02-05T23:12:26.316Z,101509.25
2024-02-05T23:14:54.568Z,101495.97
2024-02-05T23:17:22.811Z,101499.66
2024-02-05T23:19:51.015Z,101498.84
2024-02-05T23:22:19.326Z,101493.56
2024-02-05T23:24:47.552Z,101487.31
2024-02-05T23:27:15.804Z,101489.22
2024-02-05T23:29:44.098Z,101483.91
2024-02-05T23:32:13.736Z,101484.78
2024-02-05T23:34:44.261Z,101484.00
2024-02-05T23:37:12.549Z,101475.94
2024-02-05T23:39:40.761Z,101466.97
2024-02-05T23:42:09.366Z,101464.38
2024-02-05T23:44:37.664Z,101470.66
2024-02-05T23:47:05.923Z,101470.56
2024-02-05T23:49:37.596Z,101460.66
2024-02-05T23:52:06.004Z,101465.16
2024-02-05T23:54:34.690Z,101456.22
2024-02-05T23:57:02.916Z,101458.06
2024-02-05T23:59:31.370Z,101474.22
